Time;durP1;ratioP1;P1;durP2;ratioP2;P2;SDS_P1;SDS_P2;PMS_P1;PMS_P2;Temp;Humidity;BMP_temperature;BMP_pressure;BME280_temperature;BME280_humidity;BME280_pressure;Samples;Min_cycle;Max_cycle;Signal;HPM_P1;HPM_P2
2022/01/02 00:00:41;;;;;;;8.82;5.30;;;13.00;98.30;;;;;;4972619;28;20080;-67
2022/01/02 00:03:08;;;;;;;11.63;5.80;;;13.00;98.30;;;;;;4969698;28;20022;-66
2022/01/02 00:05:37;;;;;;;11.18;4.97;;;12.90;98.20;;;;;;4972346;28;20039;-66
2022/01/02 00:08:05;;;;;;;12.15;5.78;;;12.90;98.20;;;;;;4972437;28;20030;-66
2022/01/02 00:10:49;;;;;;;11.85;5.85;;;12.90;98.30;;;;;;4972040;28;20027;-66
2022/01/02 00:13:21;;;;;;;7.70;4.68;;;12.90;98.30;;;;;;4972899;28;20475;-66
2022/01/02 00:15:47;;;;;;;10.25;5.03;;;12.80;98.20;;;;;;4963874;28;20043;-66
2022/01/02 00:18:15;;;;;;;7.97;4.88;;;12.80;98.30;;;;;;4959946;28;20049;-66
2022/01/02 00:20:47;;;;;;;10.10;4.68;;;12.70;98.30;;;;;;4960732;28;20039;-66
2022/01/02 00:23:19;;;;;;;9.00;4.72;;;12.70;98.30;;;;;;4972304;28;20090;-67
2022/01/02 00:25:50;;;;;;;11.98;5.00;;;12.70;98.40;;;;;;4965319;28;20063;-67
2022/01/02 00:28:17;;;;;;;10.52;5.07;;;12.70;98.40;;;;;;4969427;28;20030;-66
2022/01/02 00:30:45;;;;;;;7.78;4.72;;;12.60;98.40;;;;;;4971769;28;20034;-66
2022/01/02 00:33:11;;;;;;;6.95;4.35;;;12.60;98.40;;;;;;4972174;28;20030;-66
2022/01/02 00:35:37;;;;;;;9.55;4.68;;;12.60;98.40;;;;;;4972109;28;20034;-66
2022/01/02 00:38:04;;;;;;;8.43;4.70;;;12.50;98.40;;;;;;4972348;28;20027;-66
2022/01/02 00:40:33;;;;;;;10.23;4.68;;;12.50;98.40;;;;;;4970190;28;20475;-66
2022/01/02 00:43:03;;;;;;;8.52;5.82;;;12.50;98.40;;;;;;4971765;28;20031;-66
2022/01/02 00:45:41;;;;;;;11.63;4.72;;;12.50;98.40;;;;;;4970847;28;20027;-66
2022/01/02 00:48:13;;;;;;;8.65;5.07;;;12.40;98.40;;;;;;4972512;28;20042;-66
2022/01/02 00:50:42;;;;;;;9.93;5.55;;;12.40;98.40;;;;;;4972386;28;20034;-66
2022/01/02 00:53:10;;;;;;;8.60;4.45;;;12.40;98.50;;;;;;4971574;28;20035;-65
2022/01/02 00:55:36;;;;;;;9.02;5.28;;;12.30;98.50;;;;;;4971870;28;20114;-66
2022/01/02 00:58:14;;;;;;;15.82;5.97;;;12.30;98.60;;;;;;4971675;28;20119;-65
2022/01/02 01:00:48;;;;;;;11.55;5.22;;;12.20;98.60;;;;;;4967918;28;20074;-66
2022/01/02 01:03:30;;;;;;;11.88;5.50;;;12.20;98.70;;;;;;4973092;28;20482;-66
2022/01/02 01:05:57;;;;;;;9.40;5.47;;;12.10;98.70;;;;;;4971636;28;20129;-66
2022/01/02 01:08:23;;;;;;;9.90;5.80;;;12.10;98.80;;;;;;4974439;28;20023;-66
2022/01/02 01:10:50;;;;;;;12.15;6.28;;;12.10;98.80;;;;;;4971297;28;20041;-66
2022/01/02 01:13:16;;;;;;;10.15;5.50;;;12.00;98.80;;;;;;4976781;28;20030;-66
2022/01/02 01:15:43;;;;;;;10.60;5.60;;;12.00;98.90;;;;;;4974896;28;20034;-66
2022/01/02 01:18:09;;;;;;;7.65;4.70;;;12.00;98.90;;;;;;4976780;28;20027;-66
2022/01/02 01:20:41;;;;;;;10.27;5.55;;;12.00;98.90;;;;;;4975803;28;20085;-66
2022/01/02 01:23:11;;;;;;;11.25;6.03;;;12.00;99.00;;;;;;4975670;28;20042;-66
2022/01/02 01:25:38;;;;;;;10.82;5.70;;;11.90;99.00;;;;;;4975726;28;20058;-66
2022/01/02 01:28:04;;;;;;;10.60;6.18;;;11.90;99.00;;;;;;4976457;28;20039;-65
2022/01/02 01:30:30;;;;;;;8.70;5.10;;;11.90;99.10;;;;;;4975204;28;20023;-65
2022/01/02 01:32:55;;;;;;;10.38;6.30;;;11.90;99.10;;;;;;4975129;28;20032;-66
2022/01/02 01:35:22;;;;;;;11.40;5.68;;;11.90;99.10;;;;;;4975277;28;20035;-66
2022/01/02 01:37:48;;;;;;;12.32;5.38;;;11.90;99.10;;;;;;4976238;28;20023;-66
2022/01/02 01:40:15;;;;;;;8.07;5.18;;;11.90;99.20;;;;;;4972324;28;20046;-66
2022/01/02 01:42:54;;;;;;;11.50;6.55;;;11.80;99.20;;;;;;4974956;28;20033;-66
2022/01/02 01:47:54;;;;;;;11.55;5.35;;;11.70;99.20;;;;;;4976423;28;20110;-65
2022/01/02 01:50:25;;;;;;;10.27;5.37;;;11.70;99.20;;;;;;4970456;28;20415;-65
2022/01/02 01:52:50;;;;;;;27.33;6.72;;;11.80;99.30;;;;;;4964829;28;20055;-65
2022/01/02 01:55:19;;;;;;;9.73;5.80;;;11.70;99.30;;;;;;4974639;28;20050;-65
2022/01/02 01:57:46;;;;;;;9.50;5.13;;;11.70;99.30;;;;;;4973874;28;20114;-65
2022/01/02 02:00:15;;;;;;;8.38;4.78;;;11.70;99.30;;;;;;4974531;28;20046;-66
2022/01/02 02:02:41;;;;;;;11.38;4.95;;;11.70;99.40;;;;;;4973923;28;20023;-66
2022/01/02 02:05:07;;;;;;;9.35;5.43;;;11.70;99.40;;;;;;4973781;28;20058;-66
2022/01/02 02:07:40;;;;;;;8.48;5.28;;;11.70;99.40;;;;;;4975870;28;20022;-66
2022/01/02 02:12:42;;;;;;;8.57;5.32;;;11.70;99.60;;;;;;4971851;28;20051;-66
2022/01/02 02:15:09;;;;;;;10.75;5.43;;;11.70;99.40;;;;;;4967701;28;20446;-65
2022/01/02 02:17:36;;;;;;;10.65;5.47;;;11.70;99.50;;;;;;4967496;28;20023;-65
2022/01/02 02:20:20;;;;;;;8.65;5.22;;;11.70;99.50;;;;;;4973655;28;20380;-66
2022/01/02 02:22:48;;;;;;;9.88;5.05;;;11.70;99.50;;;;;;4975132;28;20112;-66
2022/01/02 02:25:17;;;;;;;9.63;5.93;;;11.70;99.40;;;;;;4973848;28;20382;-66
2022/01/02 02:28:02;;;;;;;11.68;5.15;;;11.70;99.50;;;;;;4973756;28;20233;-65
2022/01/02 02:30:29;;;;;;;;;;;11.60;99.40;;;;;;4974663;28;20419;-65
2022/01/02 02:32:56;;;;;;;9.23;5.50;;;11.60;99.40;;;;;;4973672;28;19965;-65
2022/01/02 02:35:21;;;;;;;10.77;5.35;;;11.60;99.40;;;;;;4972437;28;20093;-66
2022/01/02 02:37:47;;;;;;;7.72;5.30;;;11.50;99.50;;;;;;4975059;28;20486;-66
2022/01/02 02:40:16;;;;;;;7.95;5.60;;;11.50;99.50;;;;;;4974195;28;20509;-65
2022/01/02 02:51:11;;;;;;;7.78;5.63;;;11.50;99.50;;;;;;4971624;28;20486;-67
2022/01/02 02:53:40;;;;;;;9.65;5.72;;;11.40;99.40;;;;;;4973981;28;20031;-66
2022/01/02 02:58:49;;;;;;;7.97;5.32;;;11.30;99.50;;;;;;4955542;28;20023;-67
2022/01/02 03:01:18;;;;;;;9.10;5.30;;;11.40;99.50;;;;;;4956374;28;20470;-66
2022/01/02 03:03:45;;;;;;;9.18;4.80;;;11.30;99.70;;;;;;4973227;28;20180;-67
2022/01/02 03:06:11;;;;;;;11.45;4.70;;;11.30;99.50;;;;;;4973812;28;20053;-67
2022/01/02 03:08:38;;;;;;;9.10;5.22;;;11.30;99.60;;;;;;4955615;29;20028;-67
2022/01/02 03:11:07;;;;;;;7.05;4.80;;;11.30;99.60;;;;;;4970781;28;20054;-67
2022/01/02 03:13:33;;;;;;;8.48;5.00;;;11.30;99.60;;;;;;4974531;28;20040;-67
2022/01/02 03:15:58;;;;;;;7.15;4.40;;;11.30;99.70;;;;;;4971102;28;20031;-67
2022/01/02 03:18:24;;;;;;;8.10;4.70;;;11.30;99.70;;;;;;4973513;28;20038;-67
2022/01/02 03:20:49;;;;;;;9.82;4.82;;;11.30;99.70;;;;;;4972625;28;20178;-68
2022/01/02 03:23:15;;;;;;;10.07;4.72;;;11.30;99.60;;;;;;4973945;28;20031;-68
2022/01/02 03:25:40;;;;;;;11.25;5.05;;;11.30;99.80;;;;;;4972966;28;20030;-67
2022/01/02 03:28:06;;;;;;;7.15;4.60;;;11.30;99.60;;;;;;4974482;28;20561;-67
2022/01/02 03:30:31;;;;;;;8.20;4.80;;;11.30;99.60;;;;;;4970217;28;20034;-68
2022/01/02 03:32:57;;;;;;;8.82;4.68;;;11.30;99.70;;;;;;4957873;28;20027;-68
2022/01/02 03:35:22;;;;;;;11.40;4.88;;;11.30;99.60;;;;;;4971333;28;20049;-67
2022/01/02 03:37:48;;;;;;;9.43;5.07;;;11.30;99.90;;;;;;4973882;28;20077;-67
2022/01/02 03:40:13;;;;;;;7.43;4.50;;;11.30;99.70;;;;;;4972834;28;20035;-67
2022/01/02 03:42:40;;;;;;;7.93;4.57;;;11.30;99.70;;;;;;4973593;28;20031;-67
2022/01/02 03:45:06;;;;;;;7.50;4.40;;;11.30;99.70;;;;;;4969861;28;20019;-67
2022/01/02 03:47:31;;;;;;;7.03;4.40;;;11.40;99.70;;;;;;4972080;28;20117;-67
2022/01/02 03:49:59;;;;;;;8.13;4.55;;;11.30;99.60;;;;;;4973299;28;20118;-67
2022/01/02 03:52:26;;;;;;;7.90;4.75;;;11.40;99.60;;;;;;4973680;28;20026;-67
2022/01/02 03:54:52;;;;;;;7.35;4.38;;;11.40;99.60;;;;;;4972723;28;20114;-67
2022/01/02 03:57:17;;;;;;;7.15;4.95;;;11.40;99.60;;;;;;4968895;28;20478;-67
2022/01/02 03:59:43;;;;;;;12.60;6.05;;;11.40;99.60;;;;;;4958374;28;20038;-67
2022/01/02 04:02:09;;;;;;;7.18;4.20;;;11.40;99.60;;;;;;4973039;28;20050;-67
2022/01/02 04:04:34;;;;;;;8.65;4.55;;;11.40;99.60;;;;;;4971681;28;20027;-67
2022/01/02 04:07:00;;;;;;;7.53;4.72;;;11.40;99.60;;;;;;4971684;28;20085;-68
2022/01/02 04:09:26;;;;;;;8.38;4.72;;;11.40;99.50;;;;;;4971440;28;20031;-67
2022/01/02 04:11:51;;;;;;;6.45;4.25;;;11.50;99.50;;;;;;4961866;28;20031;-67
2022/01/02 04:14:16;;;;;;;8.45;4.50;;;11.40;99.50;;;;;;4972105;28;20118;-67
2022/01/02 04:16:42;;;;;;;8.63;4.70;;;11.50;99.50;;;;;;4973394;28;20054;-67
2022/01/02 04:19:07;;;;;;;8.73;4.40;;;11.50;99.50;;;;;;4972804;28;20391;-68
2022/01/02 04:21:33;;;;;;;9.85;4.25;;;11.40;99.50;;;;;;4971736;28;20125;-67
2022/01/02 04:23:58;;;;;;;6.22;3.90;;;11.40;99.50;;;;;;4973364;28;20042;-67
2022/01/02 04:26:24;;;;;;;8.20;4.32;;;11.50;99.50;;;;;;4971401;28;20029;-67
2022/01/02 04:28:49;;;;;;;8.95;4.50;;;11.40;99.50;;;;;;4973311;28;20026;-68
2022/01/02 04:31:15;;;;;;;6.28;4.25;;;11.40;99.50;;;;;;4972320;28;20371;-68
2022/01/02 04:33:40;;;;;;;7.38;4.60;;;11.50;99.50;;;;;;4968404;28;20118;-68
2022/01/02 04:36:06;;;;;;;10.68;3.95;;;11.50;99.50;;;;;;4968796;28;20544;-67
2022/01/02 04:38:32;;;;;;;5.57;3.92;;;11.50;99.50;;;;;;4971599;28;20529;-67
2022/01/02 04:40:57;;;;;;;7.30;5.00;;;11.60;99.50;;;;;;4971984;28;20074;-67
2022/01/02 04:43:23;;;;;;;7.35;4.32;;;11.50;99.40;;;;;;4972552;28;20031;-67
2022/01/02 04:45:48;;;;;;;6.10;4.20;;;11.60;99.40;;;;;;4970424;28;20105;-68
2022/01/02 04:48:14;;;;;;;8.30;4.60;;;11.60;99.40;;;;;;4973234;28;20026;-68
2022/01/02 04:50:40;;;;;;;7.93;3.90;;;11.60;99.30;;;;;;4971742;28;20458;-67
2022/01/02 04:53:05;;;;;;;7.28;4.32;;;11.60;99.40;;;;;;4962282;28;20035;-67
2022/01/02 04:55:31;;;;;;;9.52;4.03;;;11.60;99.40;;;;;;4961771;28;20045;-67
2022/01/02 04:57:57;;;;;;;7.00;4.30;;;11.60;99.30;;;;;;4954588;28;20394;-67
2022/01/02 05:00:22;;;;;;;7.78;4.18;;;11.60;99.30;;;;;;4965554;28;20058;-67
2022/01/02 05:02:49;;;;;;;7.70;4.18;;;11.50;99.30;;;;;;4971807;28;20023;-67
2022/01/02 05:05:16;;;;;;;6.00;4.10;;;11.60;99.30;;;;;;4970739;28;20038;-67
2022/01/02 05:07:41;;;;;;;6.65;4.30;;;11.50;99.30;;;;;;4972613;28;20031;-67
2022/01/02 05:10:07;;;;;;;6.85;4.35;;;11.50;99.30;;;;;;4970534;28;20115;-67
2022/01/02 05:12:34;;;;;;;5.32;3.83;;;11.50;99.30;;;;;;4971967;28;20030;-67
2022/01/02 05:14:59;;;;;;;9.70;4.57;;;11.50;99.30;;;;;;4971392;28;20039;-67
2022/01/02 05:17:25;;;;;;;6.18;3.92;;;11.50;99.20;;;;;;4972554;28;20378;-67
2022/01/02 05:19:50;;;;;;;6.55;4.55;;;11.50;99.20;;;;;;4971846;28;20381;-67
2022/01/02 05:22:16;;;;;;;9.73;5.88;;;11.50;99.20;;;;;;4972517;28;20023;-67
2022/01/02 05:24:41;;;;;;;7.90;5.10;;;11.40;99.20;;;;;;4971472;28;20022;-67
2022/01/02 05:27:07;;;;;;;8.15;4.30;;;11.40;99.20;;;;;;4970523;28;20110;-67
2022/01/02 05:29:32;;;;;;;9.45;5.28;;;11.40;99.30;;;;;;4971836;28;20030;-67
2022/01/02 05:31:58;;;;;;;9.60;4.72;;;11.30;99.30;;;;;;4971228;28;20473;-67
2022/01/02 05:34:23;;;;;;;8.55;4.47;;;11.30;99.40;;;;;;4957837;28;20054;-67
2022/01/02 05:36:49;;;;;;;7.93;4.40;;;11.30;99.40;;;;;;4971366;28;20462;-67
2022/01/02 05:39:16;;;;;;;7.47;4.43;;;11.20;99.40;;;;;;4970775;28;20034;-67
2022/01/02 05:41:42;;;;;;;7.38;4.63;;;11.20;99.50;;;;;;4967145;28;20066;-67
2022/01/02 05:44:08;;;;;;;10.30;5.20;;;11.20;99.50;;;;;;4955253;28;20030;-67
2022/01/02 05:46:33;;;;;;;5.85;4.18;;;11.30;99.60;;;;;;4971895;28;20035;-67
2022/01/02 05:48:59;;;;;;;9.13;5.20;;;11.20;99.60;;;;;;4952474;28;20119;-67
2022/01/02 05:51:24;;;;;;;8.95;4.88;;;11.20;99.60;;;;;;4969860;28;20035;-68
2022/01/02 05:53:50;;;;;;;10.93;5.05;;;11.20;99.60;;;;;;4971799;28;20038;-67
2022/01/02 05:56:15;;;;;;;8.63;4.55;;;11.20;99.70;;;;;;4973953;28;20030;-67
2022/01/02 05:58:40;;;;;;;8.25;5.00;;;11.20;99.60;;;;;;4975600;28;20030;-67
2022/01/02 06:01:06;;;;;;;7.90;5.25;;;11.20;99.60;;;;;;4974758;28;20073;-67
2022/01/02 06:03:31;;;;;;;10.93;5.18;;;11.20;99.60;;;;;;4975190;28;20175;-67
2022/01/02 06:05:57;;;;;;;10.65;5.07;;;11.20;99.70;;;;;;4972458;28;20035;-67
2022/01/02 06:08:22;;;;;;;7.78;4.47;;;11.20;99.70;;;;;;4974272;28;20166;-67
2022/01/02 06:10:48;;;;;;;8.73;4.88;;;11.10;99.70;;;;;;4973466;28;20490;-67
2022/01/02 06:13:14;;;;;;;9.35;5.68;;;11.10;99.70;;;;;;4973791;28;20030;-68
2022/01/02 06:15:39;;;;;;;10.35;5.72;;;11.20;99.80;;;;;;4974255;28;20038;-67
2022/01/02 06:18:05;;;;;;;8.85;5.25;;;11.20;99.80;;;;;;4975388;28;20542;-67
2022/01/02 06:20:30;;;;;;;13.95;5.40;;;11.10;99.80;;;;;;4971193;28;20073;-67
2022/01/02 06:22:56;;;;;;;8.88;5.20;;;11.10;99.80;;;;;;4974520;28;20034;-68
2022/01/02 06:25:22;;;;;;;9.48;5.55;;;11.10;99.80;;;;;;4974775;28;20034;-67
2022/01/02 06:27:48;;;;;;;6.43;4.80;;;11.00;99.90;;;;;;4974561;28;20039;-67
2022/01/02 06:30:14;;;;;;;9.68;4.90;;;11.10;99.90;;;;;;4973978;28;20034;-67
2022/01/02 06:32:39;;;;;;;8.77;4.63;;;11.10;99.90;;;;;;4974453;28;20050;-63
2022/01/02 06:35:05;;;;;;;10.45;5.63;;;11.10;99.90;;;;;;4973687;28;20505;-67
2022/01/02 06:37:31;;;;;;;9.07;5.30;;;11.10;99.90;;;;;;4975102;28;20038;-67
2022/01/02 06:39:56;;;;;;;9.10;5.75;;;11.00;99.90;;;;;;4971862;28;20102;-65
2022/01/02 06:42:22;;;;;;;7.80;4.75;;;11.10;99.90;;;;;;4973458;28;20019;-67
2022/01/02 06:44:48;;;;;;;7.72;4.55;;;11.10;99.90;;;;;;4974478;28;20085;-64
2022/01/02 06:47:14;;;;;;;8.20;4.55;;;11.10;99.90;;;;;;4973970;28;20030;-66
2022/01/02 06:49:41;;;;;;;6.20;4.25;;;11.10;99.90;;;;;;4972442;28;20503;-66
2022/01/02 06:52:07;;;;;;;6.55;4.22;;;11.10;99.90;;;;;;4974925;28;20026;-65
2022/01/02 06:54:32;;;;;;;7.32;4.38;;;11.10;99.90;;;;;;4971017;28;20041;-65
2022/01/02 06:56:58;;;;;;;11.13;4.63;;;11.10;99.90;;;;;;4969834;28;20394;-65
2022/01/02 06:59:23;;;;;;;8.05;4.43;;;11.10;99.90;;;;;;4973510;28;20039;-65
2022/01/02 07:01:49;;;;;;;11.90;5.03;;;11.20;99.90;;;;;;4973362;28;20054;-65
2022/01/02 07:04:14;;;;;;;8.43;4.65;;;11.20;99.90;;;;;;4973662;28;20027;-65
2022/01/02 07:06:40;;;;;;;6.32;4.57;;;11.20;99.90;;;;;;4972510;28;20446;-65
2022/01/02 07:09:05;;;;;;;7.70;4.80;;;11.20;99.90;;;;;;4974270;28;20049;-65
2022/01/02 07:11:31;;;;;;;7.53;4.38;;;11.20;99.90;;;;;;4970573;28;20407;-65
2022/01/02 07:13:56;;;;;;;9.43;5.70;;;11.30;99.90;;;;;;4973900;28;20034;-66
2022/01/02 07:16:21;;;;;;;7.97;4.85;;;11.30;99.90;;;;;;4971434;28;20181;-66
2022/01/02 07:18:47;;;;;;;9.70;4.40;;;11.30;99.90;;;;;;4974409;28;20014;-66
2022/01/02 07:21:13;;;;;;;8.65;4.30;;;11.30;99.90;;;;;;4972058;28;20089;-66
2022/01/02 07:23:39;;;;;;;8.15;4.63;;;11.30;99.90;;;;;;4974045;28;20062;-67
2022/01/02 07:26:04;;;;;;;10.50;5.15;;;11.30;99.90;;;;;;4972817;28;20031;-66
2022/01/02 07:28:33;;;;;;;8.93;4.78;;;11.30;99.90;;;;;;4973156;28;20492;-64
2022/01/02 07:30:59;;;;;;;7.97;4.40;;;11.40;99.90;;;;;;4972751;28;20038;-64
2022/01/02 07:33:24;;;;;;;6.60;4.13;;;11.40;99.90;;;;;;4974334;28;20027;-64
2022/01/02 07:35:50;;;;;;;8.45;4.18;;;11.40;99.90;;;;;;4972476;28;20057;-65
2022/01/02 07:38:15;;;;;;;11.27;4.68;;;11.40;99.90;;;;;;4974324;28;20109;-65
2022/01/02 07:40:41;;;;;;;7.13;4.05;;;11.50;99.90;;;;;;4961558;28;20070;-64
2022/01/02 07:43:06;;;;;;;6.80;4.47;;;11.50;99.90;;;;;;4968709;28;20019;-64
2022/01/02 07:45:32;;;;;;;6.72;4.10;;;11.50;99.90;;;;;;4972815;28;20027;-64
2022/01/02 07:47:57;;;;;;;8.93;4.43;;;11.60;99.90;;;;;;4973067;28;20035;-65
2022/01/02 07:50:23;;;;;;;7.22;3.97;;;11.60;99.90;;;;;;4969454;28;20038;-65
2022/01/02 07:52:48;;;;;;;6.15;4.03;;;11.70;99.90;;;;;;4972939;28;20113;-63
2022/01/02 07:55:14;;;;;;;5.05;3.70;;;11.70;99.90;;;;;;4972539;28;20404;-64
2022/01/02 07:57:40;;;;;;;5.57;3.42;;;11.70;99.90;;;;;;4973239;28;20165;-65
2022/01/02 08:00:06;;;;;;;9.43;4.30;;;11.70;99.90;;;;;;4972343;28;21256;-65
2022/01/02 08:02:31;;;;;;;5.60;3.38;;;11.70;99.90;;;;;;4972778;28;20034;-65
2022/01/02 08:04:57;;;;;;;5.93;3.70;;;11.80;99.90;;;;;;4970371;28;20402;-65
2022/01/02 08:07:22;;;;;;;7.10;3.58;;;11.80;99.90;;;;;;4973333;28;20117;-65
2022/01/02 08:09:48;;;;;;;8.05;3.53;;;11.90;99.90;;;;;;4971804;28;20398;-66
2022/01/02 08:12:13;;;;;;;6.95;3.47;;;11.90;99.90;;;;;;4973382;28;20100;-66
2022/01/02 08:14:39;;;;;;;7.72;3.80;;;11.90;99.90;;;;;;4971096;28;20437;-66
2022/01/02 08:17:04;;;;;;;5.32;3.33;;;11.90;99.90;;;;;;4972313;28;20037;-68
2022/01/02 08:19:30;;;;;;;6.57;3.42;;;11.90;99.90;;;;;;4970819;28;20030;-67
2022/01/02 08:21:55;;;;;;;5.18;3.22;;;12.00;99.90;;;;;;4973392;28;20562;-67
2022/01/02 08:24:21;;;;;;;6.80;3.33;;;12.00;99.90;;;;;;4971372;28;20031;-66
2022/01/02 08:26:46;;;;;;;6.72;3.08;;;12.00;99.90;;;;;;4973433;28;20061;-67
2022/01/02 08:29:12;;;;;;;5.72;3.20;;;12.10;99.90;;;;;;4971860;28;20026;-66
2022/01/02 08:31:40;;;;;;;8.50;3.60;;;12.20;99.90;;;;;;4970420;28;20178;-65
2022/01/02 08:34:05;;;;;;;7.30;3.47;;;12.20;99.90;;;;;;4956637;28;20056;-65
2022/01/02 08:36:31;;;;;;;5.60;3.28;;;12.20;99.90;;;;;;4956753;28;20471;-65
2022/01/02 08:38:56;;;;;;;8.57;3.60;;;12.20;99.90;;;;;;4962644;28;20031;-65
2022/01/02 08:41:22;;;;;;;6.70;3.40;;;12.30;99.90;;;;;;4972341;28;20057;-65
2022/01/02 08:43:48;;;;;;;9.48;4.25;;;12.30;99.90;;;;;;4960808;28;20029;-65
2022/01/02 08:46:13;;;;;;;6.15;3.40;;;12.30;99.90;;;;;;4969096;28;20053;-65
2022/01/02 08:48:39;;;;;;;7.15;3.58;;;12.30;99.90;;;;;;4958088;28;20055;-65
2022/01/02 08:51:05;;;;;;;6.00;3.58;;;12.30;99.90;;;;;;4970178;28;20027;-65
2022/01/02 08:53:32;;;;;;;4.72;3.22;;;12.30;99.90;;;;;;4958222;28;20034;-65
2022/01/02 08:55:58;;;;;;;5.35;3.25;;;12.30;99.90;;;;;;4966432;28;20083;-65
2022/01/02 08:58:23;;;;;;;5.13;2.90;;;12.40;99.90;;;;;;4965283;28;20085;-65
2022/01/02 09:00:49;;;;;;;6.57;3.45;;;12.40;99.90;;;;;;4981064;28;20414;-65
2022/01/02 09:03:15;;;;;;;6.38;3.30;;;12.40;99.90;;;;;;4967871;28;20020;-65
2022/01/02 09:05:41;;;;;;;5.60;3.42;;;12.40;99.90;;;;;;4968874;28;20023;-65
2022/01/02 09:08:07;;;;;;;7.60;3.30;;;12.50;99.90;;;;;;4970003;28;20403;-65
2022/01/02 09:10:32;;;;;;;5.70;3.58;;;12.50;99.90;;;;;;4962351;28;20237;-64
2022/01/02 09:12:58;;;;;;;6.40;3.78;;;12.50;99.90;;;;;;4956959;28;20039;-64
2022/01/02 09:15:25;;;;;;;7.50;3.83;;;12.50;99.90;;;;;;4980955;28;20058;-64
2022/01/02 09:17:50;;;;;;;6.25;3.65;;;12.50;99.90;;;;;;4969248;28;20483;-64
2022/01/02 09:20:17;;;;;;;7.00;3.28;;;12.60;99.90;;;;;;4969766;28;20089;-64
2022/01/02 09:22:43;;;;;;;6.18;3.60;;;12.60;99.90;;;;;;4960044;28;20027;-64
2022/01/02 09:25:10;;;;;;;16.73;4.00;;;12.70;99.90;;;;;;4957639;28;20031;-65
2022/01/02 09:27:36;;;;;;;8.10;3.50;;;12.60;99.90;;;;;;4957803;28;20497;-63
2022/01/02 09:30:06;;;;;;;6.43;3.72;;;12.70;99.90;;;;;;4973033;28;20035;-63
2022/01/02 09:32:34;;;;;;;5.82;3.65;;;12.70;99.90;;;;;;4974183;28;20121;-64
2022/01/02 09:35:01;;;;;;;4.80;3.28;;;12.70;99.90;;;;;;4965692;28;20050;-64
2022/01/02 09:37:26;;;;;;;5.97;3.83;;;12.80;99.90;;;;;;4975405;28;20062;-64
2022/01/02 09:39:52;;;;;;;6.53;3.28;;;12.80;99.90;;;;;;4971744;28;20498;-64
2022/01/02 09:42:18;;;;;;;6.97;3.30;;;12.80;99.90;;;;;;4958757;28;20037;-64
2022/01/02 09:44:43;;;;;;;5.72;3.53;;;12.90;99.90;;;;;;4972233;28;20406;-64
2022/01/02 09:47:10;;;;;;;6.47;3.60;;;12.80;99.90;;;;;;4961813;28;20080;-64
2022/01/02 09:49:38;;;;;;;7.47;3.60;;;12.90;99.90;;;;;;4971758;28;20070;-65
2022/01/02 09:52:04;;;;;;;5.40;3.88;;;12.90;99.90;;;;;;4971374;28;20051;-64
2022/01/02 09:54:32;;;;;;;7.53;3.70;;;12.90;99.90;;;;;;4964262;28;20081;-65
2022/01/02 09:56:58;;;;;;;6.20;3.58;;;13.00;99.90;;;;;;4964860;28;20356;-65
2022/01/02 09:59:23;;;;;;;7.40;3.55;;;13.00;99.90;;;;;;4973020;28;20054;-65
2022/01/02 10:01:48;;;;;;;6.80;3.35;;;13.00;99.90;;;;;;4973656;28;20039;-66
2022/01/02 10:04:37;;;;;;;8.25;3.70;;;13.10;99.90;;;;;;4974760;28;20035;-65
2022/01/02 10:07:24;;;;;;;6.00;3.05;;;13.10;99.90;;;;;;4974164;28;20489;-65
2022/01/02 10:09:50;;;;;;;5.20;3.10;;;13.20;99.90;;;;;;4973447;28;20122;-65
2022/01/02 10:12:28;;;;;;;6.00;3.20;;;13.20;99.90;;;;;;4973697;28;20114;-65
2022/01/02 10:15:14;;;;;;;5.78;3.33;;;13.20;99.90;;;;;;4974957;28;20082;-66
2022/01/02 10:18:10;;;;;;;5.47;3.17;;;13.30;99.90;;;;;;4973102;28;20035;-66
2022/01/02 10:20:47;;;;;;;4.93;3.03;;;13.30;99.90;;;;;;4973147;28;20089;-66
2022/01/02 10:23:25;;;;;;;5.72;2.67;;;13.30;99.90;;;;;;4969630;28;20113;-66
2022/01/02 10:25:52;;;;;;;5.68;2.90;;;13.30;99.90;;;;;;4974214;28;20037;-65
2022/01/02 10:28:29;;;;;;;5.70;3.13;;;13.30;99.90;;;;;;4974539;28;20443;-65
2022/01/02 10:31:09;;;;;;;9.82;3.63;;;13.30;99.90;;;;;;4968301;28;20039;-65
2022/01/02 10:33:46;;;;;;;6.57;3.33;;;13.40;99.90;;;;;;4974889;28;20034;-65
2022/01/02 10:36:13;;;;;;;5.05;3.47;;;13.40;99.90;;;;;;4974110;28;20050;-66
2022/01/02 10:38:38;;;;;;;7.93;3.63;;;13.30;99.90;;;;;;4973482;28;20027;-66
2022/01/02 10:41:04;;;;;;;7.38;3.55;;;13.40;99.90;;;;;;4964791;28;20047;-66
2022/01/02 10:43:33;;;;;;;6.75;4.13;;;13.40;99.90;;;;;;4965248;28;20026;-66
2022/01/02 10:46:03;;;;;;;5.65;3.75;;;13.40;99.90;;;;;;4964092;28;20335;-66
2022/01/02 10:48:37;;;;;;;7.70;3.60;;;13.50;99.90;;;;;;4977145;28;20019;-65
2022/01/02 10:51:02;;;;;;;7.50;3.17;;;13.50;99.90;;;;;;4974609;28;20034;-65
2022/01/02 10:53:28;;;;;;;6.70;3.97;;;13.50;99.90;;;;;;4965143;28;20475;-66
2022/01/02 10:55:54;;;;;;;7.63;3.78;;;13.50;99.90;;;;;;4962244;28;20038;-66
2022/01/02 10:58:20;;;;;;;7.15;3.55;;;13.50;99.90;;;;;;4972746;28;20030;-66
2022/01/02 11:00:46;;;;;;;10.20;4.00;;;13.50;99.90;;;;;;4971947;28;20446;-66
2022/01/02 11:03:12;;;;;;;8.07;3.95;;;13.50;99.90;;;;;;4973643;28;20430;-66
2022/01/02 11:05:39;;;;;;;7.70;3.80;;;13.50;99.90;;;;;;4972449;28;20077;-66
2022/01/02 11:08:06;;;;;;;6.93;3.97;;;13.50;99.90;;;;;;4972136;28;20122;-66
2022/01/02 11:10:35;;;;;;;9.20;4.47;;;13.50;99.90;;;;;;4972596;28;20031;-65
2022/01/02 11:13:03;;;;;;;7.07;4.07;;;13.50;99.90;;;;;;4968344;28;20487;-65
2022/01/02 11:15:29;;;;;;;7.18;4.47;;;13.50;99.90;;;;;;4972367;28;20050;-64
2022/01/02 11:17:56;;;;;;;12.35;4.03;;;13.40;99.90;;;;;;4972116;28;20037;-64
2022/01/02 11:20:24;;;;;;;6.75;4.00;;;13.40;99.90;;;;;;4972625;28;20031;-65
2022/01/02 11:23:00;;;;;;;7.65;4.50;;;13.40;99.90;;;;;;4960797;28;20038;-66
2022/01/02 11:25:36;;;;;;;7.82;4.07;;;13.40;99.90;;;;;;4962415;28;20033;-66
2022/01/02 11:28:04;;;;;;;8.15;3.53;;;13.30;99.90;;;;;;4961860;28;20077;-65
2022/01/02 11:30:33;;;;;;;9.70;4.20;;;13.40;99.90;;;;;;4966979;28;20038;-64
2022/01/02 11:33:10;;;;;;;7.72;3.80;;;13.30;99.90;;;;;;4960222;28;20035;-65
2022/01/02 11:35:38;;;;;;;6.38;3.78;;;13.30;99.90;;;;;;4958156;28;20126;-66
2022/01/02 11:38:06;;;;;;;10.68;4.22;;;13.30;99.90;;;;;;4957923;28;21362;-66
2022/01/02 11:40:49;;;;;;;9.27;4.38;;;13.30;99.90;;;;;;4962633;28;20096;-65
2022/01/02 11:43:47;;;;;;;9.68;4.28;;;13.30;99.90;;;;;;4955723;28;20035;-65
2022/01/02 11:46:25;;;;;;;8.52;4.68;;;13.30;99.90;;;;;;4960711;28;20168;-65
2022/01/02 11:49:25;;;;;;;7.63;4.07;;;13.30;99.90;;;;;;4972993;28;20050;-67
2022/01/02 11:51:59;;;;;;;11.27;4.20;;;13.30;99.90;;;;;;4969722;28;20042;-68
2022/01/02 11:54:31;;;;;;;7.18;4.15;;;13.20;99.90;;;;;;4978459;28;20042;-68
2022/01/02 11:57:03;;;;;;;9.52;4.13;;;13.20;99.90;;;;;;4962446;28;20038;-68
2022/01/02 11:59:43;;;;;;;7.45;3.75;;;13.20;99.90;;;;;;4971066;28;20048;-68
2022/01/02 12:02:13;;;;;;;9.80;3.90;;;13.20;99.90;;;;;;4962728;28;20051;-68
2022/01/02 12:05:12;;;;;;;7.85;4.38;;;13.20;99.90;;;;;;4967564;28;20027;-68
2022/01/02 12:07:45;;;;;;;5.68;3.70;;;13.20;99.90;;;;;;4963095;28;20089;-68
2022/01/02 12:10:14;;;;;;;7.88;4.18;;;13.20;99.90;;;;;;4973265;28;20022;-68
2022/01/02 12:15:24;;;;;;;8.75;4.35;;;13.20;99.90;;;;;;4972244;28;20070;-67
2022/01/02 12:18:06;;;;;;;9.40;4.03;;;13.20;99.90;;;;;;4971153;28;20049;-67
2022/01/02 12:20:53;;;;;;;9.02;3.95;;;13.30;99.90;;;;;;4968542;28;20078;-67
2022/01/02 12:23:33;;;;;;;7.03;3.90;;;13.20;99.90;;;;;;4966033;28;20015;-67
2022/01/02 12:26:18;;;;;;;7.35;4.25;;;13.30;99.90;;;;;;4972455;28;20045;-68
2022/01/02 12:29:01;;;;;;;7.40;3.42;;;13.20;99.90;;;;;;4968017;28;20170;-69
2022/01/02 12:31:47;;;;;;;8.50;4.30;;;13.20;99.90;;;;;;4972856;28;20157;-68
2022/01/02 12:34:17;;;;;;;7.57;3.60;;;13.10;99.90;;;;;;4960864;28;20134;-69
2022/01/02 12:36:45;;;;;;;8.05;4.28;;;13.10;99.90;;;;;;4972144;28;20031;-68
2022/01/02 12:39:30;;;;;;;9.00;3.92;;;13.10;99.90;;;;;;4973355;28;20394;-68
2022/01/02 12:42:01;;;;;;;10.20;3.88;;;13.10;99.90;;;;;;4971902;28;20035;-68
2022/01/02 12:44:30;;;;;;;7.13;3.88;;;13.10;99.90;;;;;;4971318;28;20085;-67
2022/01/02 12:47:00;;;;;;;7.35;4.03;;;13.10;99.90;;;;;;4971603;28;20434;-67
2022/01/02 12:49:29;;;;;;;8.45;4.00;;;13.10;99.90;;;;;;4960377;28;20065;-68
2022/01/02 12:51:57;;;;;;;9.07;3.92;;;13.10;99.90;;;;;;4972260;28;20034;-70
2022/01/02 12:54:28;;;;;;;8.95;3.85;;;13.00;99.90;;;;;;4961782;28;20050;-70
2022/01/02 12:56:57;;;;;;;7.82;4.47;;;13.00;99.90;;;;;;4961379;28;20034;-69
2022/01/02 12:59:25;;;;;;;8.38;3.60;;;13.00;99.90;;;;;;4969632;28;20498;-70
2022/01/02 13:01:52;;;;;;;9.90;4.32;;;13.00;99.90;;;;;;4971948;28;20050;-70
2022/01/02 13:04:18;;;;;;;8.20;4.43;;;13.00;99.90;;;;;;4956838;28;20023;-70
2022/01/02 13:06:46;;;;;;;10.57;4.13;;;13.00;99.90;;;;;;4959341;28;20518;-70
2022/01/02 13:09:12;;;;;;;9.98;4.75;;;12.90;99.90;;;;;;4958667;28;20034;-70